createdAt,value
2019-04-29T00:01:27.513Z,8.80
2019-04-29T00:03:56.299Z,8.90
2019-04-29T00:06:25.325Z,8.90
2019-04-29T00:08:54.375Z,8.80
2019-04-29T00:11:23.401Z,8.80
2019-04-29T00:13:52.366Z,8.70
2019-04-29T00:16:45.873Z,8.70
2019-04-29T00:19:35.968Z,8.70
2019-04-29T00:22:03.820Z,8.60
2019-04-29T00:24:32.727Z,8.60
2019-04-29T00:27:01.711Z,8.50
2019-04-29T00:29:32.507Z,8.50
2019-04-29T00:32:01.582Z,8.40
2019-04-29T00:34:30.438Z,8.40
2019-04-29T00:37:09.489Z,8.50
2019-04-29T00:39:56.198Z,8.40
2019-04-29T00:42:47.134Z,8.40
2019-04-29T00:45:16.333Z,8.40
2019-04-29T00:47:45.245Z,8.40
2019-04-29T00:50:14.348Z,8.50
2019-04-29T00:52:43.234Z,8.60
2019-04-29T00:55:15.372Z,8.70
2019-04-29T00:57:44.373Z,8.60
2019-04-29T01:00:17.874Z,8.50
2019-04-29T01:02:46.703Z,8.50
2019-04-29T01:05:15.556Z,8.40
2019-04-29T01:07:44.356Z,8.30
2019-04-29T01:10:13.572Z,8.30
2019-04-29T01:12:42.588Z,8.30
2019-04-29T01:15:11.988Z,8.30
2019-04-29T01:17:40.997Z,8.30
2019-04-29T01:20:10.391Z,8.30
2019-04-29T01:22:39.276Z,8.30
2019-04-29T01:25:08.955Z,8.30
2019-04-29T01:27:43.258Z,8.30
2019-04-29T01:30:33.552Z,8.30
2019-04-29T01:33:02.523Z,8.40
2019-04-29T01:35:31.458Z,8.50
2019-04-29T01:38:00.558Z,8.50
2019-04-29T01:40:41.811Z,8.50
2019-04-29T01:43:10.752Z,8.40
2019-04-29T01:45:39.864Z,8.40
2019-04-29T01:48:08.701Z,8.40
2019-04-29T01:50:37.690Z,8.30
2019-04-29T01:53:06.564Z,8.40
2019-04-29T01:55:35.537Z,8.40
2019-04-29T01:58:04.468Z,8.30
2019-04-29T02:00:33.350Z,8.30
2019-04-29T02:03:02.388Z,8.40
2019-04-29T02:05:31.246Z,8.40
2019-04-29T02:08:00.306Z,8.40
2019-04-29T02:10:32.502Z,8.40
2019-04-29T02:13:01.529Z,8.40
2019-04-29T02:15:30.363Z,8.40
2019-04-29T02:17:59.344Z,8.50
2019-04-29T02:20:28.160Z,8.40
2019-04-29T02:23:15.090Z,8.30
2019-04-29T02:25:45.573Z,8.40
2019-04-29T02:28:14.483Z,8.30
2019-04-29T02:30:46.389Z,8.30
2019-04-29T02:33:15.518Z,8.20
2019-04-29T02:35:44.605Z,8.20
2019-04-29T02:38:22.180Z,8.20
2019-04-29T02:40:59.862Z,8.10
2019-04-29T02:43:31.150Z,8.20
2019-04-29T02:46:00.046Z,8.10
2019-04-29T02:48:34.008Z,8.10
2019-04-29T02:50:59.528Z,8.10
2019-04-29T02:53:28.404Z,8.10
2019-04-29T02:55:59.018Z,8.20
2019-04-29T02:58:34.484Z,8.20
2019-04-29T03:01:22.577Z,8.20
2019-04-29T03:04:14.616Z,8.10
2019-04-29T03:06:43.522Z,8.20
2019-04-29T03:09:12.423Z,8.10
2019-04-29T03:11:41.410Z,8.10
2019-04-29T03:14:10.367Z,8.10
2019-04-29T03:16:39.682Z,8.10
2019-04-29T03:19:14.372Z,8.20
2019-04-29T03:21:50.414Z,8.20
2019-04-29T03:24:19.388Z,8.20
2019-04-29T03:26:48.206Z,8.20
2019-04-29T03:29:24.039Z,8.20
2019-04-29T03:31:54.763Z,8.20
2019-04-29T03:34:23.872Z,8.20
2019-04-29T03:36:53.598Z,8.20
2019-04-29T03:39:22.572Z,8.10
2019-04-29T03:41:51.394Z,8.10
2019-04-29T03:44:20.421Z,8.20
2019-04-29T03:46:49.354Z,8.10
2019-04-29T03:49:18.250Z,8.10
2019-04-29T03:51:47.174Z,8.20
2019-04-29T03:54:15.989Z,8.10
2019-04-29T03:56:45.513Z,8.10
2019-04-29T03:59:14.383Z,8.10
2019-04-29T04:02:08.427Z,8.10
2019-04-29T04:05:02.765Z,8.10
2019-04-29T04:07:43.435Z,8.00
2019-04-29T04:10:12.571Z,8.10
2019-04-29T04:12:41.390Z,8.00
2019-04-29T04:15:10.949Z,8.10
2019-04-29T04:17:52.904Z,8.10
2019-04-29T04:20:22.014Z,8.10
2019-04-29T04:22:50.862Z,8.20
2019-04-29T04:25:19.690Z,8.30
2019-04-29T04:27:48.597Z,8.40
2019-04-29T04:30:18.331Z,8.30
2019-04-29T04:32:47.574Z,8.40
2019-04-29T04:35:17.094Z,8.40
2019-04-29T04:37:45.969Z,8.40
2019-04-29T04:40:17.772Z,8.50
2019-04-29T04:42:46.588Z,8.50
2019-04-29T04:45:15.821Z,8.50
2019-04-29T04:47:44.835Z,8.50
2019-04-29T04:50:13.857Z,8.50
2019-04-29T04:52:42.771Z,8.60
2019-04-29T04:55:12.430Z,8.60
2019-04-29T04:57:41.372Z,8.70
2019-04-29T05:00:19.991Z,8.70
2019-04-29T05:02:47.191Z,8.70
2019-04-29T05:05:16.154Z,8.70
2019-04-29T05:07:45.187Z,8.70
2019-04-29T05:10:14.145Z,8.70
2019-04-29T05:12:42.984Z,8.60
2019-04-29T05:15:12.105Z,8.80
2019-04-29T05:17:40.938Z,8.80
2019-04-29T05:20:10.602Z,8.90
2019-04-29T05:22:41.172Z,8.90
2019-04-29T05:25:10.392Z,9.00
2019-04-29T05:27:39.206Z,9.00
2019-04-29T05:30:08.696Z,9.00
2019-04-29T05:32:37.611Z,9.00
2019-04-29T05:35:10.123Z,9.00
2019-04-29T05:38:02.137Z,9.10
2019-04-29T05:40:38.931Z,9.20
2019-04-29T05:43:09.915Z,9.20
2019-04-29T05:45:47.765Z,9.30
2019-04-29T05:48:16.812Z,9.30
2019-04-29T05:51:00.894Z,9.40
2019-04-29T05:53:32.841Z,9.30
2019-04-29T05:56:01.844Z,9.30
2019-04-29T05:58:32.982Z,9.40
2019-04-29T06:01:05.292Z,9.50
2019-04-29T06:03:38.018Z,9.70
2019-04-29T06:06:05.049Z,9.80
2019-04-29T06:08:34.597Z,9.90
2019-04-29T06:11:04.604Z,10.10
2019-04-29T06:13:33.442Z,10.20
2019-04-29T06:16:02.426Z,10.10
2019-04-29T06:18:32.942Z,10.10
2019-04-29T06:21:08.931Z,10.00
2019-04-29T06:23:32.389Z,9.90
2019-04-29T06:26:01.221Z,9.80
2019-04-29T06:28:30.202Z,9.80
2019-04-29T06:30:59.397Z,9.80
2019-04-29T06:33:29.172Z,9.80
2019-04-29T06:35:58.983Z,9.70
2019-04-29T06:38:27.876Z,9.60
2019-04-29T06:40:56.840Z,9.70
2019-04-29T06:43:28.876Z,9.70
2019-04-29T06:45:56.375Z,9.80
2019-04-29T06:48:25.384Z,9.80
2019-04-29T06:50:54.277Z,10.00
2019-04-29T06:53:23.348Z,10.00
2019-04-29T06:55:52.483Z,10.00
2019-04-29T06:58:21.417Z,10.00
2019-04-29T07:00:51.003Z,10.00
2019-04-29T07:03:20.941Z,10.00
2019-04-29T07:06:10.013Z,10.00
2019-04-29T07:08:38.839Z,10.00
2019-04-29T07:11:07.697Z,10.00
2019-04-29T07:13:36.618Z,10.10
2019-04-29T07:16:05.642Z,9.90
2019-04-29T07:18:34.576Z,9.80
2019-04-29T07:21:03.370Z,9.70
2019-04-29T07:23:34.387Z,9.60
2019-04-29T07:26:03.299Z,9.60
2019-04-29T07:28:32.257Z,9.60
2019-04-29T07:31:03.123Z,9.60
2019-04-29T07:33:32.098Z,9.60
2019-04-29T07:36:10.906Z,9.70
2019-04-29T07:38:41.058Z,9.70
2019-04-29T07:41:02.283Z,9.80
2019-04-29T07:43:31.327Z,9.80
2019-04-29T07:46:16.290Z,9.80
2019-04-29T07:48:44.245Z,9.90
2019-04-29T07:51:13.222Z,9.90
2019-04-29T07:53:45.568Z,9.80
2019-04-29T07:56:12.907Z,9.80
2019-04-29T07:58:41.785Z,9.90
2019-04-29T08:01:10.764Z,9.90
2019-04-29T08:03:39.579Z,9.90
2019-04-29T08:06:08.871Z,10.00
2019-04-29T08:08:38.674Z,10.00
2019-04-29T08:11:07.597Z,10.00
2019-04-29T08:13:37.868Z,10.10
2019-04-29T08:16:06.786Z,10.10
2019-04-29T08:18:35.644Z,10.20
2019-04-29T08:21:04.681Z,10.20
2019-04-29T08:23:40.990Z,10.20
2019-04-29T08:26:04.595Z,10.20
2019-04-29T08:28:33.634Z,10.10
2019-04-29T08:31:02.476Z,10.20
2019-04-29T08:33:31.421Z,10.20
2019-04-29T08:36:00.372Z,10.20
2019-04-29T08:38:48.534Z,10.20
2019-04-29T08:41:21.558Z,10.20
2019-04-29T08:44:15.249Z,10.30
2019-04-29T08:46:37.706Z,10.30
2019-04-29T08:49:07.781Z,10.40
2019-04-29T08:51:36.838Z,10.50
2019-04-29T08:54:05.818Z,10.50
2019-04-29T08:56:34.798Z,10.30
2019-04-29T08:59:04.046Z,10.30
2019-04-29T09:01:34.028Z,10.20
2019-04-29T09:04:03.673Z,10.00
2019-04-29T09:06:33.743Z,10.00
2019-04-29T09:09:04.953Z,10.00
2019-04-29T09:11:34.496Z,9.90
2019-04-29T09:14:03.388Z,10.00
2019-04-29T09:16:32.294Z,10.00
2019-04-29T09:19:01.186Z,9.90
2019-04-29T09:21:30.110Z,9.90
2019-04-29T09:23:59.072Z,9.90
2019-04-29T09:26:39.582Z,9.90
2019-04-29T09:29:26.425Z,9.90
2019-04-29T09:31:55.754Z,9.90
2019-04-29T09:34:26.141Z,9.90
2019-04-29T09:36:55.307Z,10.00
2019-04-29T09:39:24.268Z,10.00
2019-04-29T09:42:13.236Z,10.00
2019-04-29T09:45:02.114Z,10.00
2019-04-29T09:47:31.563Z,10.00
2019-04-29T09:50:00.390Z,9.90
2019-04-29T09:52:29.401Z,9.90
2019-04-29T09:54:59.586Z,9.80
2019-04-29T09:57:28.895Z,9.80
2019-04-29T10:00:07.117Z,9.70
2019-04-29T10:03:02.645Z,9.60
2019-04-29T10:05:45.867Z,9.50
2019-04-29T10:08:15.064Z,9.40
2019-04-29T10:10:44.823Z,9.40
2019-04-29T10:13:13.784Z,9.30
2019-04-29T10:16:00.517Z,9.20
2019-04-29T10:18:31.462Z,9.10
2019-04-29T10:21:09.237Z,9.00
2019-04-29T10:23:38.225Z,8.90
2019-04-29T10:26:07.197Z,8.80
2019-04-29T10:28:38.685Z,8.90
2019-04-29T10:31:13.940Z,8.90
2019-04-29T10:33:42.947Z,8.90
2019-04-29T10:36:11.980Z,8.90
2019-04-29T10:38:44.884Z,8.80
2019-04-29T10:41:21.662Z,8.80
2019-04-29T10:44:08.812Z,8.80
2019-04-29T10:47:12.209Z,8.80
2019-04-29T10:49:49.637Z,8.80
2019-04-29T10:52:18.530Z,8.80
2019-04-29T10:54:51.650Z,8.80
2019-04-29T10:57:19.117Z,8.80
2019-04-29T10:59:51.459Z,8.80
2019-04-29T11:02:40.352Z,8.70
2019-04-29T11:05:59.815Z,8.70
2019-04-29T11:08:24.346Z,8.70
2019-04-29T11:11:02.126Z,8.70
2019-04-29T11:13:24.703Z,8.70
2019-04-29T11:15:53.593Z,8.70
2019-04-29T11:18:23.221Z,8.70
2019-04-29T11:20:54.057Z,8.80
2019-04-29T11:23:43.061Z,8.80
2019-04-29T11:26:29.672Z,8.80
2019-04-29T11:28:59.386Z,8.80
2019-04-29T11:31:28.641Z,8.80
2019-04-29T11:34:28.964Z,8.80
2019-04-29T11:36:57.953Z,8.80
2019-04-29T11:39:26.841Z,8.90
2019-04-29T11:41:59.669Z,8.90
2019-04-29T11:44:27.882Z,8.90
2019-04-29T11:46:57.350Z,9.00
2019-04-29T11:49:41.219Z,9.00
2019-04-29T11:52:10.450Z,9.00
2019-04-29T11:54:39.316Z,9.00
2019-04-29T11:57:11.085Z,9.00
2019-04-29T11:59:55.680Z,9.10
2019-04-29T12:02:45.789Z,9.10
2019-04-29T12:05:27.531Z,9.20
2019-04-29T12:07:56.465Z,9.20
2019-04-29T12:10:25.391Z,9.20
2019-04-29T12:12:54.502Z,9.30
2019-04-29T12:15:50.266Z,9.30
2019-04-29T12:18:22.321Z,9.30
2019-04-29T12:20:57.989Z,9.30
2019-04-29T12:23:26.883Z,9.40
2019-04-29T12:25:58.702Z,9.40
2019-04-29T12:28:26.988Z,9.50
2019-04-29T12:30:58.046Z,9.50
2019-04-29T12:33:40.357Z,9.60
2019-04-29T12:36:11.302Z,9.60
2019-04-29T12:38:58.348Z,9.60
2019-04-29T12:41:48.951Z,9.60
2019-04-29T12:44:39.635Z,9.70
2019-04-29T12:47:28.650Z,9.70
2019-04-29T12:49:57.528Z,9.70
2019-04-29T12:52:26.864Z,9.70
2019-04-29T12:57:40.789Z,9.90
2019-04-29T13:00:12.275Z,10.20
2019-04-29T13:03:00.155Z,10.20
2019-04-29T13:05:42.130Z,10.10
2019-04-29T13:08:24.605Z,10.00
2019-04-29T13:10:55.704Z,9.90
2019-04-29T13:13:24.635Z,9.90
2019-04-29T13:16:11.779Z,9.90
2019-04-29T13:18:55.792Z,9.90
2019-04-29T13:21:25.968Z,9.90
2019-04-29T13:24:05.293Z,9.90
2019-04-29T13:26:28.217Z,10.00
2019-04-29T13:29:01.489Z,10.00
2019-04-29T13:31:38.047Z,10.00
2019-04-29T13:34:08.952Z,10.00
2019-04-29T13:36:29.677Z,10.00
2019-04-29T13:38:58.515Z,10.00
2019-04-29T13:41:27.728Z,10.10
2019-04-29T13:44:04.104Z,10.10
2019-04-29T13:46:51.195Z,10.10
2019-04-29T13:49:28.078Z,10.20
2019-04-29T13:51:57.633Z,10.20
2019-04-29T13:54:26.468Z,10.30
2019-04-29T13:56:56.864Z,10.30
2019-04-29T13:59:33.799Z,10.30
2019-04-29T14:02:22.756Z,10.50
2019-04-29T14:04:56.000Z,10.60
2019-04-29T14:07:24.520Z,10.70
2019-04-29T14:09:53.365Z,10.70
2019-04-29T14:12:47.634Z,10.70
2019-04-29T14:14:54.018Z,10.60
2019-04-29T14:17:26.918Z,10.60
2019-04-29T14:19:56.965Z,10.50
2019-04-29T14:22:25.454Z,10.50
2019-04-29T14:24:54.370Z,10.50
2019-04-29T14:27:25.048Z,10.50
2019-04-29T14:29:56.387Z,10.60
2019-04-29T14:32:35.937Z,10.70
2019-04-29T14:35:20.990Z,10.60
2019-04-29T14:37:55.309Z,10.60
2019-04-29T14:40:20.777Z,10.70
2019-04-29T14:43:25.269Z,10.70
2019-04-29T14:46:01.134Z,10.80
2019-04-29T14:48:42.211Z,10.80
2019-04-29T14:51:05.047Z,10.80
2019-04-29T14:53:33.846Z,10.90
2019-04-29T14:56:02.711Z,11.00
2019-04-29T14:58:31.623Z,11.00
2019-04-29T15:01:23.857Z,11.00
2019-04-29T15:04:01.024Z,10.90
2019-04-29T15:06:29.976Z,10.90
2019-04-29T15:08:59.011Z,11.00
2019-04-29T15:11:33.801Z,11.00
2019-04-29T15:14:23.969Z,11.00
2019-04-29T15:16:57.998Z,11.00
2019-04-29T15:19:49.455Z,11.10
2019-04-29T15:22:17.717Z,11.30
2019-04-29T15:24:46.643Z,11.20
2019-04-29T15:27:15.489Z,11.30
2019-04-29T15:29:44.431Z,11.40
2019-04-29T15:32:13.422Z,11.40
2019-04-29T15:34:43.947Z,11.40
2019-04-29T15:37:13.031Z,11.40
2019-04-29T15:39:46.212Z,11.40
2019-04-29T15:42:12.654Z,11.40
2019-04-29T15:44:41.625Z,11.40
2019-04-29T15:47:10.516Z,11.40
2019-04-29T15:49:39.400Z,11.50
2019-04-29T15:52:08.427Z,11.60
2019-04-29T15:54:37.259Z,11.60
2019-04-29T15:57:09.142Z,11.60
2019-04-29T15:59:48.431Z,11.60
2019-04-29T16:02:07.672Z,11.70
2019-04-29T16:04:41.247Z,11.80
2019-04-29T16:07:28.007Z,12.00
2019-04-29T16:10:25.002Z,12.00
2019-04-29T16:12:57.377Z,11.90
2019-04-29T16:15:26.404Z,11.90
2019-04-29T16:17:55.308Z,11.80
2019-04-29T16:20:24.154Z,11.90
2019-04-29T16:23:00.099Z,11.90
2019-04-29T16:25:24.726Z,12.00
2019-04-29T16:27:53.680Z,12.10
2019-04-29T16:30:26.052Z,12.10
2019-04-29T16:32:53.413Z,12.10
2019-04-29T16:35:23.989Z,12.10
2019-04-29T16:37:52.949Z,12.10
2019-04-29T16:40:21.990Z,12.00
2019-04-29T16:42:59.899Z,12.00
2019-04-29T16:45:50.464Z,12.00
2019-04-29T16:48:14.746Z,12.00
2019-04-29T16:50:44.054Z,12.00
2019-04-29T16:53:13.087Z,12.10
2019-04-29T16:55:43.245Z,12.10
2019-04-29T16:58:18.241Z,12.00
2019-04-29T17:00:46.842Z,12.00
2019-04-29T17:03:14.089Z,12.00
2019-04-29T17:05:42.945Z,12.00
2019-04-29T17:08:15.234Z,12.00
2019-04-29T17:10:49.958Z,12.00
2019-04-29T17:13:23.833Z,11.90
2019-04-29T17:15:52.224Z,12.00
2019-04-29T17:18:20.166Z,11.90
2019-04-29T17:20:49.130Z,12.00
2019-04-29T17:23:24.253Z,12.00
2019-04-29T17:25:48.755Z,11.90
2019-04-29T17:31:12.664Z,11.90
2019-04-29T17:33:50.393Z,11.90
2019-04-29T17:35:17.270Z,11.90
2019-04-29T17:36:23.664Z,11.80
2019-04-29T17:38:50.195Z,11.80
2019-04-29T17:41:19.254Z,11.80
2019-04-29T17:43:56.267Z,11.70
2019-04-29T17:46:47.474Z,11.70
2019-04-29T17:49:22.179Z,11.80
2019-04-29T17:52:01.481Z,11.80
2019-04-29T17:54:28.801Z,11.80
2019-04-29T17:57:26.422Z,11.70
2019-04-29T18:00:05.051Z,11.70
2019-04-29T18:02:52.568Z,11.70
2019-04-29T18:05:54.518Z,11.70
2019-04-29T18:08:17.798Z,11.70
2019-04-29T18:10:51.261Z,11.70
2019-04-29T18:13:24.050Z,11.60
2019-04-29T18:16:00.895Z,11.60
2019-04-29T18:18:28.652Z,11.60
2019-04-29T18:21:25.784Z,11.50
2019-04-29T18:24:35.983Z,11.50
2019-04-29T18:27:08.722Z,11.50
2019-04-29T18:29:41.599Z,11.40
2019-04-29T18:32:08.374Z,11.30
2019-04-29T18:34:37.605Z,11.30
2019-04-29T18:37:06.695Z,11.20
2019-04-29T18:39:35.891Z,11.20
2019-04-29T18:42:06.800Z,11.10
2019-04-29T18:44:35.950Z,11.10
2019-04-29T18:47:05.571Z,11.00
2019-04-29T18:49:34.534Z,10.90
2019-04-29T18:52:05.689Z,10.90
2019-04-29T18:54:35.780Z,10.90
2019-04-29T18:57:05.890Z,10.80
2019-04-29T18:59:36.683Z,10.80
2019-04-29T19:02:09.267Z,10.90
2019-04-29T19:04:41.528Z,10.80
2019-04-29T19:07:10.467Z,10.80
2019-04-29T19:09:40.809Z,10.80
2019-04-29T19:12:09.737Z,10.80
2019-04-29T19:14:38.599Z,10.80
2019-04-29T19:17:07.600Z,10.80
2019-04-29T19:19:39.283Z,10.70
2019-04-29T19:22:09.309Z,10.70
2019-04-29T19:24:38.211Z,10.80
2019-04-29T19:27:09.775Z,10.70
2019-04-29T19:29:38.939Z,10.70
2019-04-29T19:32:08.511Z,10.70
2019-04-29T19:34:42.971Z,10.70
2019-04-29T19:37:07.948Z,10.70
2019-04-29T19:39:36.760Z,10.70
2019-04-29T19:42:05.756Z,10.70
2019-04-29T19:44:36.701Z,10.60
2019-04-29T19:47:05.293Z,10.70
2019-04-29T19:49:35.863Z,10.70
2019-04-29T19:52:05.125Z,10.70
2019-04-29T19:54:33.940Z,10.70
2019-04-29T19:57:04.914Z,10.70
2019-04-29T19:59:36.054Z,10.70
2019-04-29T20:02:09.519Z,10.70
2019-04-29T20:04:43.417Z,10.70
2019-04-29T20:07:13.004Z,10.70
2019-04-29T20:09:43.244Z,10.70
2019-04-29T20:12:14.977Z,10.70
2019-04-29T20:14:43.640Z,10.70
2019-04-29T20:17:31.539Z,10.70
2019-04-29T20:20:12.185Z,10.70
2019-04-29T20:22:43.510Z,10.70
2019-04-29T20:25:11.908Z,10.80
2019-04-29T20:27:43.146Z,10.80
2019-04-29T20:30:19.315Z,10.70
2019-04-29T20:32:42.852Z,10.70
2019-04-29T20:35:12.373Z,10.70
2019-04-29T20:37:43.191Z,10.70
2019-04-29T20:40:15.874Z,10.70
2019-04-29T20:42:47.785Z,10.70
2019-04-29T20:45:15.577Z,10.70
2019-04-29T20:47:45.911Z,10.60
2019-04-29T20:50:15.913Z,10.60
2019-04-29T20:53:08.823Z,10.60
2019-04-29T20:55:38.595Z,10.50
2019-04-29T20:58:08.123Z,10.40
2019-04-29T21:00:39.148Z,10.40
2019-04-29T21:03:09.218Z,10.50
2019-04-29T21:05:47.352Z,10.40
2019-04-29T21:08:14.662Z,10.30
2019-04-29T21:10:46.656Z,10.30
2019-04-29T21:13:39.043Z,10.20
2019-04-29T21:16:15.036Z,10.10
2019-04-29T21:18:45.485Z,10.20
2019-04-29T21:21:15.191Z,10.20
2019-04-29T21:23:46.028Z,10.10
2019-04-29T21:26:15.891Z,10.10
2019-04-29T21:28:47.018Z,10.10
2019-04-29T21:31:18.553Z,10.10
2019-04-29T21:33:46.084Z,10.10
2019-04-29T21:36:46.033Z,10.00
2019-04-29T21:39:44.657Z,10.00
2019-04-29T21:42:35.158Z,9.90
2019-04-29T21:44:58.626Z,9.90
2019-04-29T21:47:41.754Z,9.90
2019-04-29T21:49:59.469Z,9.80
2019-04-29T21:52:28.361Z,9.70
2019-04-29T21:54:57.176Z,9.70
2019-04-29T21:57:25.999Z,9.60
2019-04-29T21:59:55.582Z,9.60
2019-04-29T22:02:26.062Z,9.50
2019-04-29T22:04:55.263Z,9.40
2019-04-29T22:07:25.864Z,9.40
2019-04-29T22:09:55.622Z,9.40
2019-04-29T22:12:24.653Z,9.30
2019-04-29T22:14:54.264Z,9.30
2019-04-29T22:17:26.226Z,9.20
2019-04-29T22:19:59.172Z,9.20
2019-04-29T22:22:25.641Z,9.20
2019-04-29T22:24:57.548Z,9.10
2019-04-29T22:27:25.311Z,9.10
2019-04-29T22:29:55.593Z,9.00
2019-04-29T22:32:24.658Z,9.00
2019-04-29T22:34:56.099Z,8.90
2019-04-29T22:37:25.472Z,8.90
2019-04-29T22:39:54.393Z,8.90
2019-04-29T22:42:32.169Z,8.80
2019-04-29T22:45:01.196Z,8.80
2019-04-29T22:47:30.096Z,8.70
2019-04-29T22:50:03.267Z,8.70
2019-04-29T22:52:31.324Z,8.60
2019-04-29T22:55:01.880Z,8.60
2019-04-29T22:57:31.722Z,8.60
2019-04-29T23:00:00.804Z,8.50
2019-04-29T23:02:29.684Z,8.40
2019-04-29T23:04:58.592Z,8.30
2019-04-29T23:07:27.396Z,8.40
2019-04-29T23:09:57.565Z,8.30
2019-04-29T23:12:26.739Z,8.30
2019-04-29T23:14:56.560Z,8.30
2019-04-29T23:17:26.261Z,8.20
2019-04-29T23:19:59.606Z,8.10
2019-04-29T23:22:46.053Z,8.00
2019-04-29T23:25:21.730Z,8.00
2019-04-29T23:27:52.677Z,8.00
2019-04-29T23:30:24.496Z,7.90
2019-04-29T23:32:53.377Z,7.80
2019-04-29T23:35:22.293Z,7.80
2019-04-29T23:37:51.139Z,7.80
2019-04-29T23:40:20.030Z,7.70
2019-04-29T23:42:49.260Z,7.70
2019-04-29T23:45:21.119Z,7.70
2019-04-29T23:47:50.315Z,7.60
2019-04-29T23:50:20.231Z,7.50
2019-04-29T23:52:51.846Z,7.40
2019-04-29T23:55:20.380Z,7.50
2019-04-29T23:58:12.383Z,7.40
